createdAt,value
2022-10-24T00:08:14.518Z,4.20
2022-10-24T00:18:15.930Z,4.10
2022-10-24T00:28:17.485Z,4.65
2022-10-24T00:38:18.885Z,4.68
2022-10-24T00:48:20.357Z,4.78
2022-10-24T00:58:22.070Z,4.68
2022-10-24T01:08:23.372Z,5.75
2022-10-24T01:18:24.810Z,5.28
2022-10-24T01:28:26.217Z,4.18
2022-10-24T01:38:27.599Z,4.85
2022-10-24T01:48:28.926Z,5.28
2022-10-24T01:58:30.234Z,5.72
2022-10-24T02:08:31.476Z,4.75
2022-10-24T02:18:32.792Z,4.57
2022-10-24T02:28:34.333Z,5.20
2022-10-24T02:38:35.692Z,4.45
2022-10-24T02:48:37.005Z,5.15
2022-10-24T02:58:38.268Z,4.07
2022-10-24T03:08:39.620Z,7.43
2022-10-24T03:18:40.934Z,5.00
2022-10-24T03:28:42.457Z,5.45
2022-10-24T03:38:43.830Z,4.63
2022-10-24T03:48:45.158Z,4.20
2022-10-24T03:58:46.529Z,4.68
2022-10-24T04:08:47.843Z,4.68
2022-10-24T04:18:49.155Z,5.32
2022-10-24T04:28:51.078Z,4.32
2022-10-24T04:38:52.419Z,5.30
2022-10-24T04:48:53.813Z,5.60
2022-10-24T04:58:55.186Z,6.63
2022-10-24T05:08:56.532Z,5.00
2022-10-24T05:18:57.851Z,4.88
2022-10-24T05:28:59.413Z,5.25
2022-10-24T05:39:00.767Z,5.00
2022-10-24T05:49:02.076Z,5.38
2022-10-24T05:59:03.821Z,4.88
2022-10-24T06:09:05.164Z,4.88
2022-10-24T06:19:06.484Z,5.72
2022-10-24T06:29:07.964Z,5.00
2022-10-24T06:39:09.386Z,4.75
2022-10-24T06:49:10.736Z,4.57
2022-10-24T06:59:11.999Z,4.60
2022-10-24T07:09:25.408Z,4.88
2022-10-24T07:19:26.889Z,3.90
2022-10-24T07:29:28.830Z,4.72
2022-10-24T07:39:30.264Z,4.03
2022-10-24T07:49:33.696Z,3.60
2022-10-24T07:59:42.223Z,5.38
2022-10-24T08:09:44.082Z,3.17
2022-10-24T08:19:45.669Z,3.33
2022-10-24T08:29:47.223Z,3.15
2022-10-24T08:39:48.658Z,3.08
2022-10-24T08:49:50.703Z,4.10
2022-10-24T08:59:52.358Z,3.20
2022-10-24T09:09:53.772Z,4.28
2022-10-24T09:30:33.057Z,3.53
2022-10-24T09:40:42.279Z,2.67
2022-10-24T10:01:01.221Z,2.83
2022-10-24T10:11:02.781Z,2.80
2022-10-24T10:21:04.218Z,2.90
2022-10-24T10:31:05.561Z,3.33
2022-10-24T10:41:06.946Z,4.40
2022-10-24T10:51:08.594Z,2.50
2022-10-24T11:01:10.138Z,3.15
2022-10-24T11:11:11.670Z,2.50
2022-10-24T11:21:13.097Z,3.33
2022-10-24T11:31:14.497Z,3.03
2022-10-24T11:41:15.883Z,3.58
2022-10-24T11:51:17.411Z,3.03
2022-10-24T12:01:18.941Z,2.60
2022-10-24T12:11:20.294Z,2.78
2022-10-24T12:21:25.724Z,2.85
2022-10-24T12:31:28.014Z,2.97
2022-10-24T12:41:29.361Z,2.90
2022-10-24T12:51:31.030Z,2.42
2022-10-24T13:01:35.400Z,2.47
2022-10-24T13:11:36.911Z,2.47
2022-10-24T13:21:39.599Z,2.53
2022-10-24T13:31:43.117Z,2.00
2022-10-24T13:41:44.676Z,2.45
2022-10-24T13:51:46.120Z,2.60
2022-10-24T14:01:47.720Z,2.78
2022-10-24T14:11:49.113Z,3.00
2022-10-24T14:21:50.375Z,2.80
2022-10-24T14:31:51.806Z,2.40
2022-10-24T14:41:53.398Z,2.85
2022-10-24T14:51:55.021Z,2.95
2022-10-24T15:01:57.395Z,2.50
2022-10-24T15:11:58.796Z,2.03
2022-10-24T15:22:00.171Z,2.25
2022-10-24T15:32:01.883Z,2.40
2022-10-24T15:52:04.539Z,2.83
2022-10-24T16:02:05.968Z,2.53
2022-10-24T16:12:07.492Z,2.45
2022-10-24T16:22:08.946Z,2.40
2022-10-24T16:32:11.208Z,2.63
2022-10-24T16:42:12.585Z,2.45
2022-10-24T16:52:14.027Z,2.63
2022-10-24T17:02:15.465Z,2.35
2022-10-24T17:12:16.856Z,2.50
2022-10-24T17:22:18.252Z,2.50
2022-10-24T17:32:19.751Z,2.60
2022-10-24T17:42:21.307Z,2.53
2022-10-24T17:52:22.592Z,2.83
2022-10-24T18:02:24.099Z,1.67
2022-10-24T18:12:25.463Z,2.15
2022-10-24T18:22:26.790Z,1.30
2022-10-24T18:32:28.323Z,1.90
2022-10-24T18:42:29.574Z,1.20
2022-10-24T18:52:30.856Z,1.30
2022-10-24T19:02:32.236Z,1.52
2022-10-24T19:12:33.568Z,1.63
2022-10-24T19:22:35.158Z,1.10
2022-10-24T19:32:36.766Z,1.02
2022-10-24T19:42:38.161Z,0.70
2022-10-24T19:52:39.517Z,0.90
2022-10-24T20:02:41.914Z,1.08
2022-10-24T20:12:43.331Z,1.08
2022-10-24T20:22:45.218Z,1.00
2022-10-24T20:32:46.862Z,1.27
2022-10-24T20:42:49.692Z,1.13
2022-10-24T20:52:51.043Z,1.50
2022-10-24T21:02:52.469Z,1.35
2022-10-24T21:12:54.417Z,1.20
2022-10-24T21:22:55.992Z,1.10
2022-10-24T21:32:57.304Z,1.42
2022-10-24T21:42:58.636Z,1.20
2022-10-24T21:52:59.979Z,1.02
2022-10-24T22:03:01.306Z,0.95
2022-10-24T22:13:02.643Z,2.20
2022-10-24T22:23:05.206Z,0.98
2022-10-24T22:33:06.549Z,0.77
2022-10-24T22:43:07.869Z,1.20
2022-10-24T22:53:09.377Z,1.60
2022-10-24T23:03:10.805Z,1.08
2022-10-24T23:13:12.486Z,1.35
2022-10-24T23:23:28.251Z,1.02
2022-10-24T23:33:30.826Z,1.00
2022-10-24T23:43:32.535Z,1.60
2022-10-24T23:53:33.860Z,1.00
